Unser Flugplatzteam

Segelflugzeugschlepp am Flugplatz Konstanz

Unsere freundlichen Mitarbeiter stehen Ihnen gerne mit Rat und Tat zur Seite:

Robert Leitner

Flugleiter, Landesbeauftragter für Luftaufsicht am Verkehrlandeplatz Konstanz

Minky Schweizer

Flugleiterin

Dieter Bauer

Flugleiter

Live am Platz

Die Bilder unserer Webcams werden alle 5 Minuten aktualisiert.

Sonnenaufgang:

06:24 UTC / 07:24 Lokal

Sonnenuntergang:

15:50 UTC / 16:50 Lokal

METAR (13.11.2018 21:20 UTC):

EDNY 132020Z VRB01KT 0700 0600 R24/0750U FG FEW003 BKN048 05/05 Q1032
LIFR

TAF (13.11.2018 18:58 UTC):

TAF COR EDNY 131758Z 1318/1418 VRB02KT 3000 BCFG FEW040 PROB40 TEMPO 1318/1321 0400 FG BKN001 BECMG 1319/1322 04005KT BECMG 1400/1403 BKN008 BECMG 1410/1413 8000 SCT012

Alle Angaben unverbindlich und ohne Gewähr. Zeiten genähert.

Für den Verkehrslandeplatz Konstanz werden keine offiziellen Wetterinformationen herausgegeben. Daher werden zur Orientierung Daten des nahegelegenen Flughafens Friedrichshafen dargestellt.